Time,TemperatureF,DewpointF,PressureIn,WindDirection,WindDirectionDegrees,WindSpeedMPH,WindSpeedGustMPH,Humidity,HourlyPrecipIn,Conditions,Clouds,dailyrainin,SoftwareType,DateUTC
2013-03-08 00:00:00,43.0,35.0,29.73,South,185,0.0,0.0,73,0.00,,---,0.00,VWS V13.01,2013-03-08 08:00:00,
2013-03-08 01:30:00,42.4,35.0,29.70,SW,221,0.0,0.0,75,0.00,,---,0.00,VWS V13.01,2013-03-08 09:30:00,
2013-03-08 02:00:00,39.1,31.9,29.69,SW,221,0.0,0.0,75,0.00,,---,0.00,VWS V13.01,2013-03-08 10:00:00,
2013-03-08 02:30:00,38.7,32.1,29.67,SW,221,0.0,0.0,77,0.00,,---,0.00,VWS V13.01,2013-03-08 10:30:00,
2013-03-08 03:00:00,39.3,32.7,29.67,SE,137,0.0,0.0,77,0.00,,---,0.00,VWS V13.01,2013-03-08 11:00:00,
2013-03-08 03:30:00,40.0,35.9,29.67,SE,133,0.0,0.0,85,0.04,,---,0.04,VWS V13.01,2013-03-08 11:30:00,
2013-03-08 04:00:00,39.7,36.4,29.67,South,184,0.0,0.0,88,0.08,,---,0.08,VWS V13.01,2013-03-08 12:00:00,
2013-03-08 04:30:00,38.5,35.5,29.67,South,178,0.0,0.0,89,0.11,,---,0.11,VWS V13.01,2013-03-08 12:30:00,
2013-03-08 05:00:00,36.7,34.0,29.69,SSW,196,7.0,15.0,90,0.13,,---,0.17,VWS V13.01,2013-03-08 13:00:00,
2013-03-08 05:30:00,35.0,32.6,29.68,South,184,6.0,14.0,91,0.17,,---,0.25,VWS V13.01,2013-03-08 13:30:00,
2013-03-08 06:00:00,35.3,33.5,29.66,WNW,284,8.0,11.0,93,0.21,,---,0.32,VWS V13.01,2013-03-08 14:00:00,
2013-03-08 06:30:00,36.1,34.3,29.66,WSW,238,5.0,13.0,94,0.15,,---,0.32,VWS V13.01,2013-03-08 14:30:00,
2013-03-08 07:00:00,36.5,34.9,29.68,East,98,3.0,11.0,94,0.07,,---,0.32,VWS V13.01,2013-03-08 15:00:00,
2013-03-08 07:30:00,37.1,35.5,29.71,SE,141,3.0,11.0,94,0.00,,---,0.32,VWS V13.01,2013-03-08 15:30:00,
2013-03-08 08:00:00,37.3,35.7,29.72,SE,128,0.0,6.0,94,0.00,,---,0.32,VWS V13.01,2013-03-08 16:00:00,
2013-03-08 08:30:00,38.3,37.0,29.73,SE,128,1.0,4.0,95,0.00,,---,0.32,VWS V13.01,2013-03-08 16:30:00,
2013-03-08 09:00:00,39.3,38.0,29.74,South,172,7.0,10.0,95,0.00,,---,0.32,VWS V13.01,2013-03-08 17:00:00,
2013-03-08 09:30:00,40.3,37.3,29.73,SSW,209,4.0,12.0,90,0.00,,---,0.32,VWS V13.01,2013-03-08 17:30:00,
2013-03-08 10:01:00,41.3,36.8,29.74,SSE,155,6.0,11.0,84,0.00,,---,0.32,VWS V13.01,2013-03-08 18:01:00,
2013-03-08 10:30:00,43.4,37.3,29.74,SSE,148,3.0,12.0,79,0.00,,---,0.32,VWS V13.01,2013-03-08 18:30:00,
2013-03-08 11:00:00,44.2,36.1,29.75,SSE,166,8.0,12.0,73,0.00,,---,0.32,VWS V13.01,2013-03-08 19:00:00,
2013-03-08 11:30:00,45.2,36.0,29.73,SSE,155,0.0,9.0,70,0.00,,---,0.32,VWS V13.01,2013-03-08 19:30:00,
2013-03-08 12:00:00,45.2,36.4,29.74,SSE,155,0.0,0.0,71,0.00,,---,0.32,VWS V13.01,2013-03-08 20:00:00,
2013-03-08 12:30:00,45.5,35.6,29.74,South,176,0.0,0.0,68,0.00,,---,0.32,VWS V13.01,2013-03-08 20:30:00,
2013-03-08 13:00:00,46.1,34.6,29.75,SSE,168,0.0,0.0,64,0.00,,---,0.32,VWS V13.01,2013-03-08 21:00:00,
2013-03-08 13:30:00,46.5,35.4,29.72,SSE,167,0.0,0.0,65,0.00,,---,0.32,VWS V13.01,2013-03-08 21:30:00,
2013-03-08 14:01:00,47.1,36.0,29.74,West,271,0.0,0.0,65,0.00,,---,0.32,VWS V13.01,2013-03-08 22:01:00,
2013-03-08 14:30:00,48.0,34.8,29.72,South,177,0.0,0.0,60,0.00,,---,0.32,VWS V13.01,2013-03-08 22:30:00,
2013-03-08 15:00:00,48.3,35.1,29.72,South,175,0.0,0.0,60,0.00,,---,0.32,VWS V13.01,2013-03-08 23:00:00,
2013-03-08 15:30:00,48.6,34.9,29.72,SSW,192,0.0,0.0,59,0.00,,---,0.32,VWS V13.01,2013-03-08 23:30:00,
2013-03-08 16:00:00,48.2,34.1,29.73,SSW,204,0.0,0.0,58,0.00,,---,0.32,VWS V13.01,2013-03-09 00:00:00,
2013-03-08 16:30:00,46.6,34.7,29.74,South,188,0.0,0.0,63,0.00,,---,0.32,VWS V13.01,2013-03-09 00:30:00,
2013-03-08 17:00:00,46.1,35.4,29.75,South,191,0.0,0.0,66,0.00,,---,0.32,VWS V13.01,2013-03-09 01:00:00,
2013-03-08 17:30:00,45.4,35.1,29.75,SSW,195,0.0,0.0,67,0.00,,---,0.32,VWS V13.01,2013-03-09 01:30:00,
2013-03-08 18:01:00,44.5,35.0,29.76,SSW,197,0.0,0.0,69,0.00,,---,0.32,VWS V13.01,2013-03-09 02:01:00,
2013-03-08 18:30:00,43.6,35.5,29.77,SSE,167,0.0,0.0,73,0.00,,---,0.32,VWS V13.01,2013-03-09 02:30:00,
2013-03-08 19:00:00,43.1,35.7,29.80,South,180,0.0,0.0,75,0.00,,---,0.32,VWS V13.01,2013-03-09 03:00:00,
2013-03-08 19:30:00,43.3,35.9,29.80,SSW,202,0.0,0.0,75,0.00,,---,0.32,VWS V13.01,2013-03-09 03:30:00,
2013-03-08 20:00:00,43.4,35.8,29.82,SSW,194,0.0,0.0,74,0.00,,---,0.32,VWS V13.01,2013-03-09 04:00:00,
2013-03-08 20:30:00,43.7,35.6,29.81,SSW,192,0.0,0.0,73,0.00,,---,0.32,VWS V13.01,2013-03-09 04:30:00,
2013-03-08 21:30:00,43.1,35.7,29.84,South,184,0.0,0.0,75,0.00,,---,0.32,VWS V13.01,2013-03-09 05:30:00,
2013-03-08 22:00:00,42.8,35.1,29.85,West,260,0.0,0.0,74,0.00,,---,0.32,VWS V13.01,2013-03-09 06:00:00,
2013-03-08 22:30:00,42.7,34.7,29.84,SSW,197,0.0,0.0,73,0.00,,---,0.32,VWS V13.01,2013-03-09 06:30:00,
2013-03-08 23:00:00,43.3,35.6,29.86,South,175,0.0,0.0,74,0.00,,---,0.32,VWS V13.01,2013-03-09 07:00:00,
2013-03-08 23:30:00,43.0,35.0,29.85,South,190,0.0,0.0,73,0.00,,---,0.32,VWS V13.01,2013-03-09 07:30:00,